createdAt,value
2023-02-04T00:00:29.358Z,20.45
2023-02-04T00:02:57.995Z,18.00
2023-02-04T00:05:26.340Z,19.62
2023-02-04T00:07:54.691Z,26.60
2023-02-04T00:10:23.060Z,18.15
2023-02-04T00:12:51.271Z,15.72
2023-02-04T00:15:19.501Z,25.40
2023-02-04T00:17:47.720Z,20.30
2023-02-04T00:20:16.000Z,20.97
2023-02-04T00:22:44.361Z,22.90
2023-02-04T00:25:12.686Z,18.95
2023-02-04T00:27:40.940Z,18.30
2023-02-04T00:30:09.960Z,20.43
2023-02-04T00:32:38.205Z,29.75
2023-02-04T00:35:06.785Z,22.58
2023-02-04T00:37:35.228Z,23.42
2023-02-04T00:40:03.502Z,20.35
2023-02-04T00:42:31.761Z,25.60
2023-02-04T00:45:00.029Z,22.73
2023-02-04T00:47:28.245Z,23.20
2023-02-04T00:49:56.507Z,18.37
2023-02-04T00:52:24.739Z,18.60
2023-02-04T00:54:52.940Z,25.37
2023-02-04T00:57:21.214Z,82.27
2023-02-04T00:59:49.500Z,29.95
2023-02-04T01:02:18.596Z,25.95
2023-02-04T01:04:46.977Z,28.25
2023-02-04T01:07:15.449Z,20.55
2023-02-04T01:09:43.664Z,17.60
2023-02-04T01:12:12.052Z,19.12
2023-02-04T01:14:40.272Z,25.85
2023-02-04T01:17:08.565Z,18.92
2023-02-04T01:19:36.990Z,21.95
2023-02-04T01:22:05.217Z,21.27
2023-02-04T01:24:33.445Z,18.87
2023-02-04T01:27:01.630Z,17.77
2023-02-04T01:29:29.974Z,23.15
2023-02-04T01:31:58.444Z,18.12
2023-02-04T01:34:26.678Z,21.30
2023-02-04T01:36:54.878Z,17.70
2023-02-04T01:39:23.092Z,16.35
2023-02-04T01:41:51.391Z,28.62
2023-02-04T01:44:19.675Z,21.82
2023-02-04T01:46:48.033Z,20.72
2023-02-04T01:49:16.357Z,19.82
2023-02-04T01:51:45.237Z,19.70
2023-02-04T01:54:14.903Z,28.62
2023-02-04T01:56:44.675Z,18.45
2023-02-04T01:59:14.442Z,24.47
2023-02-04T02:01:44.585Z,22.00
2023-02-04T02:04:14.325Z,19.73
2023-02-04T02:06:44.068Z,18.98
2023-02-04T02:09:12.447Z,15.83
2023-02-04T02:11:40.756Z,16.93
2023-02-04T02:14:09.198Z,20.85
2023-02-04T02:16:37.547Z,20.12
2023-02-04T02:19:07.464Z,19.17
2023-02-04T02:21:38.477Z,22.20
2023-02-04T02:24:26.153Z,23.65
2023-02-04T02:26:55.533Z,24.50
2023-02-04T02:29:24.124Z,19.15
2023-02-04T02:31:52.727Z,20.43
2023-02-04T02:34:20.910Z,23.07
2023-02-04T02:36:49.585Z,22.30
2023-02-04T02:39:18.259Z,22.87
2023-02-04T02:41:47.406Z,20.68
2023-02-04T02:44:16.483Z,23.25
2023-02-04T02:46:45.383Z,23.95
2023-02-04T02:49:17.585Z,20.57
2023-02-04T02:51:46.376Z,23.92
2023-02-04T02:54:16.112Z,22.07
2023-02-04T02:56:44.314Z,19.30
2023-02-04T02:59:16.342Z,20.37
2023-02-04T03:01:45.794Z,21.80
2023-02-04T03:04:14.496Z,25.92
2023-02-04T03:06:42.766Z,17.65
2023-02-04T03:09:11.390Z,19.77
2023-02-04T03:11:39.847Z,15.58
2023-02-04T03:14:08.612Z,17.17
2023-02-04T03:16:37.926Z,17.87
2023-02-04T03:19:07.672Z,16.42
2023-02-04T03:21:36.151Z,18.35
2023-02-04T03:24:04.930Z,14.35
2023-02-04T03:26:33.196Z,23.38
2023-02-04T03:29:03.991Z,29.32
2023-02-04T03:31:32.283Z,15.63
2023-02-04T03:34:01.118Z,19.73
2023-02-04T03:36:29.471Z,22.00
2023-02-04T03:38:57.794Z,20.48
2023-02-04T03:41:26.000Z,17.65
2023-02-04T03:43:54.228Z,19.90
2023-02-04T03:46:23.747Z,23.30
2023-02-04T03:48:52.225Z,15.98
2023-02-04T03:51:20.435Z,21.05
2023-02-04T03:53:51.345Z,20.95
2023-02-04T03:56:19.630Z,20.40
2023-02-04T03:58:48.159Z,19.17
2023-02-04T04:01:16.454Z,20.62
2023-02-04T04:03:44.709Z,20.45
2023-02-04T04:06:12.994Z,18.07
2023-02-04T04:08:41.209Z,19.07
2023-02-04T04:11:09.408Z,16.02
2023-02-04T04:13:37.646Z,18.57
2023-02-04T04:16:06.086Z,22.02
2023-02-04T04:18:34.266Z,27.00
2023-02-04T04:21:03.097Z,21.15
2023-02-04T04:23:31.301Z,28.27
2023-02-04T04:25:59.572Z,17.42
2023-02-04T04:28:27.819Z,27.73
2023-02-04T04:30:56.194Z,16.75
2023-02-04T04:33:24.537Z,31.15
2023-02-04T04:35:52.757Z,14.68
2023-02-04T04:38:20.991Z,20.00
2023-02-04T04:40:49.606Z,25.55
2023-02-04T04:43:17.880Z,20.02
2023-02-04T04:45:46.088Z,18.57
2023-02-04T04:48:15.013Z,20.68
2023-02-04T04:50:43.223Z,16.27
2023-02-04T04:53:11.518Z,19.20
2023-02-04T04:55:39.834Z,19.20
2023-02-04T04:58:08.723Z,26.90
2023-02-04T05:00:37.020Z,17.40
2023-02-04T05:03:05.283Z,23.18
2023-02-04T05:05:34.019Z,20.25
2023-02-04T05:08:02.239Z,23.32
2023-02-04T05:10:30.878Z,22.45
2023-02-04T05:12:59.304Z,25.12
2023-02-04T05:15:27.589Z,14.33
2023-02-04T05:17:55.921Z,24.70
2023-02-04T05:20:24.506Z,18.07
2023-02-04T05:22:52.733Z,18.70
2023-02-04T05:25:20.959Z,19.27
2023-02-04T05:27:49.472Z,18.05
2023-02-04T05:30:17.762Z,25.43
2023-02-04T05:32:45.956Z,23.32
2023-02-04T05:35:14.174Z,23.55
2023-02-04T05:37:42.384Z,23.38
2023-02-04T05:40:10.764Z,25.15
2023-02-04T05:42:39.163Z,20.92
2023-02-04T05:45:07.459Z,22.02
2023-02-04T05:47:36.443Z,24.10
2023-02-04T05:50:04.757Z,21.40
2023-02-04T05:52:32.991Z,20.50
2023-02-04T05:55:01.198Z,14.35
2023-02-04T05:57:29.427Z,25.60
2023-02-04T05:59:57.652Z,22.93
2023-02-04T06:02:25.875Z,20.02
2023-02-04T06:04:54.150Z,27.02
2023-02-04T06:07:22.403Z,24.12
2023-02-04T06:09:50.799Z,19.40
2023-02-04T06:12:19.007Z,20.12
2023-02-04T06:14:47.251Z,20.82
2023-02-04T06:17:15.439Z,25.50
2023-02-04T06:19:43.656Z,23.90
2023-02-04T06:22:11.862Z,33.53
2023-02-04T06:24:40.120Z,25.80
2023-02-04T06:27:08.512Z,29.30
2023-02-04T06:29:36.713Z,21.00
2023-02-04T06:32:05.285Z,21.02
2023-02-04T06:34:33.507Z,26.85
2023-02-04T06:37:02.000Z,25.82
2023-02-04T06:39:30.378Z,26.80
2023-02-04T06:41:58.652Z,22.25
2023-02-04T06:44:26.865Z,24.20
2023-02-04T06:46:55.102Z,22.40
2023-02-04T06:49:25.034Z,20.85
2023-02-04T06:51:55.071Z,23.98
2023-02-04T06:54:23.267Z,27.60
2023-02-04T06:56:51.509Z,21.37
2023-02-04T06:59:19.719Z,19.55
2023-02-04T07:01:47.940Z,23.98
2023-02-04T07:04:16.234Z,21.35
2023-02-04T07:06:44.457Z,20.77
2023-02-04T07:09:12.835Z,30.17
2023-02-04T07:11:41.042Z,26.25
2023-02-04T07:14:10.573Z,23.92
2023-02-04T07:16:38.825Z,21.97
2023-02-04T07:19:07.071Z,25.27
2023-02-04T07:21:35.415Z,22.75
2023-02-04T07:24:03.690Z,20.75
2023-02-04T07:26:32.076Z,19.40
2023-02-04T07:29:00.571Z,26.93
2023-02-04T07:31:28.987Z,32.70
2023-02-04T07:33:57.245Z,28.32
2023-02-04T07:36:26.112Z,28.23
2023-02-04T07:38:54.310Z,23.25
2023-02-04T07:41:22.815Z,27.85
2023-02-04T07:43:52.669Z,48.25
2023-02-04T07:46:21.142Z,27.07
2023-02-04T07:48:49.331Z,25.62
2023-02-04T07:51:17.756Z,28.32
2023-02-04T07:53:45.976Z,25.27
2023-02-04T07:56:14.236Z,29.52
2023-02-04T07:58:42.547Z,24.25
2023-02-04T08:01:10.886Z,26.37
2023-02-04T08:03:41.822Z,22.27
2023-02-04T08:06:10.188Z,22.05
2023-02-04T08:08:38.404Z,25.20
2023-02-04T08:11:06.644Z,24.18
2023-02-04T08:13:34.849Z,24.23
2023-02-04T08:16:03.084Z,26.42
2023-02-04T08:18:31.301Z,29.10
2023-02-04T08:21:01.284Z,21.93
2023-02-04T08:23:29.531Z,23.02
2023-02-04T08:25:57.776Z,30.77
2023-02-04T08:28:26.138Z,25.20
2023-02-04T08:30:55.888Z,27.73
2023-02-04T08:33:24.201Z,25.97
2023-02-04T08:35:52.657Z,27.30
2023-02-04T08:38:20.927Z,28.73
2023-02-04T08:40:49.362Z,31.42
2023-02-04T08:43:17.573Z,28.95
2023-02-04T08:45:45.947Z,24.70
2023-02-04T08:48:14.208Z,29.75
2023-02-04T08:50:42.452Z,25.70
2023-02-04T08:53:10.674Z,31.93
2023-02-04T08:55:38.921Z,21.80
2023-02-04T08:58:07.170Z,24.15
2023-02-04T09:00:35.806Z,21.25
2023-02-04T09:03:04.262Z,22.60
2023-02-04T09:05:32.531Z,31.68
2023-02-04T09:08:00.737Z,26.57
2023-02-04T09:10:28.945Z,27.17
2023-02-04T09:12:57.214Z,27.22
2023-02-04T09:15:25.441Z,22.87
2023-02-04T09:17:57.950Z,24.07
2023-02-04T09:20:26.150Z,38.17
2023-02-04T09:22:54.654Z,29.23
2023-02-04T09:25:22.853Z,31.10
2023-02-04T09:27:51.117Z,26.68
2023-02-04T09:30:19.349Z,26.40
2023-02-04T09:32:47.570Z,30.90
2023-02-04T09:35:15.859Z,28.10
2023-02-04T09:37:44.048Z,24.98
2023-02-04T09:40:17.243Z,33.75
2023-02-04T09:42:47.678Z,30.88
2023-02-04T09:45:20.409Z,27.90
2023-02-04T09:47:49.809Z,28.67
2023-02-04T09:50:19.624Z,27.20
2023-02-04T09:52:48.679Z,26.93
2023-02-04T09:55:17.990Z,35.05
2023-02-04T09:57:46.626Z,36.77
2023-02-04T10:00:19.446Z,32.08
2023-02-04T10:02:47.814Z,26.50
2023-02-04T10:05:17.135Z,27.35
2023-02-04T10:07:46.498Z,28.20
2023-02-04T10:10:17.073Z,34.33
2023-02-04T10:12:45.717Z,28.87
2023-02-04T10:15:15.518Z,34.73
2023-02-04T10:17:43.977Z,28.00
2023-02-04T10:20:16.313Z,37.75
2023-02-04T10:22:44.586Z,36.08
2023-02-04T10:25:13.764Z,33.23
2023-02-04T10:27:49.991Z,34.38
2023-02-04T10:30:20.101Z,35.90
2023-02-04T10:32:48.605Z,39.75
2023-02-04T10:35:18.022Z,37.17
2023-02-04T10:37:46.395Z,32.08
2023-02-04T10:40:25.058Z,44.88
2023-02-04T10:42:53.376Z,37.83
2023-02-04T10:45:23.389Z,38.83
2023-02-04T10:47:52.774Z,40.67
2023-02-04T10:50:22.282Z,40.67
2023-02-04T10:52:52.258Z,39.60
2023-02-04T10:55:21.468Z,34.38
2023-02-04T10:57:50.774Z,41.42
2023-02-04T11:00:23.229Z,35.05
2023-02-04T11:03:05.176Z,41.90
2023-02-04T11:05:34.031Z,38.05
2023-02-04T11:08:03.028Z,41.42
2023-02-04T11:10:33.152Z,45.73
2023-02-04T11:13:03.044Z,43.92
2023-02-04T11:15:44.848Z,37.38
2023-02-04T11:18:23.794Z,36.40
2023-02-04T11:20:53.537Z,45.33
2023-02-04T11:23:30.899Z,41.98
2023-02-04T11:26:16.673Z,36.58
2023-02-04T11:28:52.186Z,41.40
2023-02-04T11:31:22.009Z,38.88
2023-02-04T11:33:51.147Z,45.40
2023-02-04T11:36:19.360Z,40.50
2023-02-04T11:38:48.775Z,37.73
2023-02-04T11:41:27.448Z,41.23
2023-02-04T11:43:56.222Z,39.05
2023-02-04T11:46:26.011Z,39.83
2023-02-04T11:48:55.590Z,43.20
2023-02-04T11:51:28.295Z,37.93
2023-02-04T11:56:24.443Z,44.85
2023-02-04T11:58:52.689Z,37.58
2023-02-04T12:01:25.539Z,42.33
2023-02-04T12:04:04.269Z,40.48
2023-02-04T12:06:34.103Z,30.95
2023-02-04T12:09:09.396Z,31.50
2023-02-04T12:11:37.611Z,33.23
2023-02-04T12:14:09.694Z,34.38
2023-02-04T12:16:42.428Z,30.90
2023-02-04T12:21:38.389Z,36.25
2023-02-04T12:24:06.819Z,29.55
2023-02-04T12:26:35.237Z,37.05
2023-02-04T12:29:05.321Z,32.67
2023-02-04T12:31:33.911Z,28.05
2023-02-04T12:34:02.297Z,30.82
2023-02-04T12:36:30.542Z,31.60
2023-02-04T12:39:02.886Z,25.62
2023-02-04T12:41:31.107Z,30.90
2023-02-04T12:44:01.087Z,32.98
2023-02-04T12:46:30.235Z,35.03
2023-02-04T12:48:58.505Z,27.48
2023-02-04T12:51:26.718Z,29.27
2023-02-04T12:53:54.960Z,29.07
2023-02-04T12:56:24.042Z,29.42
2023-02-04T12:58:52.237Z,24.20
2023-02-04T13:01:20.474Z,25.68
2023-02-04T13:03:48.678Z,33.08
2023-02-04T13:06:16.936Z,28.05
2023-02-04T13:08:45.098Z,27.50
2023-02-04T13:11:13.341Z,26.30
2023-02-04T13:13:41.552Z,24.65
2023-02-04T13:16:09.775Z,24.95
2023-02-04T13:18:37.963Z,24.23
2023-02-04T13:21:06.269Z,25.17
2023-02-04T13:23:34.551Z,23.57
2023-02-04T13:26:02.805Z,22.15
2023-02-04T13:28:31.080Z,26.10
2023-02-04T13:30:59.400Z,23.42
2023-02-04T13:33:27.607Z,21.65
2023-02-04T13:35:56.008Z,26.07
2023-02-04T13:38:25.188Z,24.98
2023-02-04T13:40:54.241Z,24.00
2023-02-04T13:43:23.414Z,21.50
2023-02-04T13:45:51.844Z,23.07
2023-02-04T13:48:20.068Z,20.92
2023-02-04T13:50:48.997Z,24.43
2023-02-04T13:53:17.569Z,25.05
2023-02-04T13:55:45.786Z,24.18
2023-02-04T13:58:14.109Z,20.82
2023-02-04T14:00:42.339Z,22.80
2023-02-04T14:03:10.513Z,18.92
2023-02-04T14:05:38.748Z,22.22
2023-02-04T14:08:07.019Z,26.87
2023-02-04T14:10:37.086Z,23.80
2023-02-04T14:13:05.109Z,21.45
2023-02-04T14:15:34.681Z,18.90
2023-02-04T14:18:04.618Z,17.60
2023-02-04T14:20:33.034Z,18.10
2023-02-04T14:23:02.670Z,23.12
2023-02-04T14:25:30.898Z,20.85
2023-02-04T14:28:00.288Z,19.62
2023-02-04T14:30:29.400Z,25.80
2023-02-04T14:32:58.061Z,22.25
2023-02-04T14:35:26.347Z,20.82
2023-02-04T14:37:54.577Z,24.92
2023-02-04T14:40:22.812Z,20.60
2023-02-04T14:42:51.020Z,17.37
2023-02-04T14:45:19.326Z,20.68
2023-02-04T14:47:47.617Z,17.45
2023-02-04T14:50:16.919Z,20.50
2023-02-04T14:52:45.122Z,26.00
2023-02-04T14:55:14.226Z,21.45
2023-02-04T14:57:42.469Z,20.17
2023-02-04T15:00:11.533Z,20.32
2023-02-04T15:02:40.332Z,22.00
2023-02-04T15:05:08.895Z,22.40
2023-02-04T15:07:37.200Z,23.67
2023-02-04T15:10:05.891Z,14.85
2023-02-04T15:12:34.376Z,18.98
2023-02-04T15:15:02.611Z,17.35
2023-02-04T15:17:30.887Z,19.75
2023-02-04T15:19:59.583Z,20.17
2023-02-04T15:22:27.801Z,16.27
2023-02-04T15:24:56.018Z,20.82
2023-02-04T15:27:24.950Z,25.60
2023-02-04T15:29:53.593Z,20.48
2023-02-04T15:32:21.980Z,17.55
2023-02-04T15:34:50.282Z,22.22
2023-02-04T15:37:18.867Z,12.40
2023-02-04T15:39:47.089Z,15.00
2023-02-04T15:42:15.438Z,19.50
2023-02-04T15:44:43.641Z,19.82
2023-02-04T15:47:11.903Z,14.70
2023-02-04T15:49:40.111Z,15.23
2023-02-04T15:52:13.481Z,18.37
2023-02-04T15:54:38.282Z,14.40
2023-02-04T15:57:06.489Z,20.77
2023-02-04T15:59:34.715Z,22.40
2023-02-04T16:02:02.939Z,23.95
2023-02-04T16:04:31.145Z,16.50
2023-02-04T16:06:59.356Z,18.98
2023-02-04T16:09:27.602Z,22.52
2023-02-04T16:11:55.816Z,16.05
2023-02-04T16:14:24.054Z,15.30
2023-02-04T16:16:52.262Z,21.55
2023-02-04T16:19:20.471Z,14.43
2023-02-04T16:21:48.714Z,21.93
2023-02-04T16:24:18.343Z,16.57
2023-02-04T16:26:46.645Z,24.37
2023-02-04T16:29:14.925Z,18.15
2023-02-04T16:31:43.199Z,17.65
2023-02-04T16:34:11.482Z,24.25
2023-02-04T16:36:39.678Z,17.50
2023-02-04T16:39:08.018Z,27.07
2023-02-04T16:41:36.213Z,28.35
2023-02-04T16:44:04.504Z,27.13
2023-02-04T16:46:33.735Z,21.70
2023-02-04T16:49:02.024Z,19.10
2023-02-04T16:51:30.224Z,16.48
2023-02-04T16:53:58.464Z,18.42
2023-02-04T16:56:28.302Z,22.13
2023-02-04T16:58:56.558Z,18.95
2023-02-04T17:01:24.797Z,16.82
2023-02-04T17:03:54.635Z,20.10
2023-02-04T17:06:22.822Z,23.85
2023-02-04T17:08:51.057Z,27.98
2023-02-04T17:11:34.197Z,25.30
2023-02-04T17:14:03.959Z,17.02
2023-02-04T17:16:32.662Z,21.77
2023-02-04T17:19:01.614Z,29.35
2023-02-04T17:21:30.590Z,21.12
2023-02-04T17:24:00.484Z,19.32
2023-02-04T17:26:28.990Z,25.37
2023-02-04T17:28:57.231Z,19.20
2023-02-04T17:31:25.605Z,17.95
2023-02-04T17:33:53.887Z,20.52
2023-02-04T17:36:22.114Z,19.42
2023-02-04T17:38:50.326Z,19.07
2023-02-04T17:41:18.606Z,25.17
2023-02-04T17:43:47.012Z,23.85
2023-02-04T17:46:15.867Z,19.00
2023-02-04T17:48:44.065Z,23.77
2023-02-04T17:51:12.263Z,21.55
2023-02-04T17:53:40.959Z,16.70
2023-02-04T17:56:13.129Z,18.70
2023-02-04T17:58:41.827Z,22.87
2023-02-04T18:01:11.906Z,19.07
2023-02-04T18:03:42.168Z,20.40
2023-02-04T18:06:17.880Z,24.45
2023-02-04T18:08:46.281Z,17.98
2023-02-04T18:11:22.085Z,21.02
2023-02-04T18:13:50.364Z,21.05
2023-02-04T18:16:20.127Z,23.42
2023-02-04T18:18:48.311Z,24.57
2023-02-04T18:21:23.800Z,43.23
2023-02-04T18:24:02.468Z,31.60
2023-02-04T18:26:32.208Z,26.65
2023-02-04T18:29:00.708Z,29.57
2023-02-04T18:31:39.541Z,28.55
2023-02-04T18:34:19.510Z,29.15
2023-02-04T18:36:48.021Z,21.40
2023-02-04T18:39:17.888Z,29.02
2023-02-04T18:41:47.653Z,22.25
2023-02-04T18:44:32.260Z,19.40
2023-02-04T18:47:01.987Z,25.43
2023-02-04T18:49:31.770Z,22.77
2023-02-04T18:52:04.651Z,21.68
2023-02-04T18:54:40.159Z,17.52
2023-02-04T18:57:16.137Z,17.62
2023-02-04T18:59:44.685Z,27.80
2023-02-04T19:02:32.633Z,31.02
2023-02-04T19:05:12.754Z,35.10
2023-02-04T19:07:32.326Z,27.95
2023-02-04T19:10:00.900Z,32.50
2023-02-04T19:12:29.126Z,42.27
2023-02-04T19:14:57.518Z,43.08
2023-02-04T19:17:29.926Z,28.90
2023-02-04T19:19:59.526Z,36.48
2023-02-04T19:22:30.921Z,35.33
2023-02-04T19:25:03.410Z,34.08
2023-02-04T19:27:36.122Z,36.85
2023-02-04T19:30:15.248Z,45.03
2023-02-04T19:32:46.526Z,34.83
2023-02-04T19:35:19.297Z,31.12
2023-02-04T19:37:49.260Z,39.15
2023-02-04T19:40:19.031Z,31.10
2023-02-04T19:42:47.301Z,34.20
2023-02-04T19:45:22.619Z,39.33
2023-02-04T19:47:52.174Z,43.02
2023-02-04T19:50:24.628Z,39.20
2023-02-04T19:52:54.400Z,41.58
2023-02-04T19:55:30.353Z,34.33
2023-02-04T19:58:17.292Z,40.17
2023-02-04T20:00:47.349Z,30.30
2023-02-04T20:03:30.811Z,31.93
2023-02-04T20:06:06.495Z,30.62
2023-02-04T20:08:36.283Z,38.23
2023-02-04T20:11:08.994Z,34.33
2023-02-04T20:13:37.233Z,33.25
2023-02-04T20:16:07.103Z,23.92
2023-02-04T20:18:35.275Z,31.05
2023-02-04T20:21:05.046Z,26.07
2023-02-04T20:23:33.464Z,27.82
2023-02-04T20:26:02.043Z,27.10
2023-02-04T20:28:38.255Z,28.60
2023-02-04T20:31:08.080Z,28.87
2023-02-04T20:33:37.843Z,21.10
2023-02-04T20:36:23.951Z,29.75
2023-02-04T20:38:53.678Z,19.35
2023-02-04T20:41:22.974Z,23.27
2023-02-04T20:43:51.658Z,25.00
2023-02-04T20:46:24.413Z,25.50
2023-02-04T20:48:52.998Z,23.98
2023-02-04T20:51:23.493Z,28.95
2023-02-04T20:53:53.319Z,24.77
2023-02-04T20:56:32.130Z,23.65
2023-02-04T20:59:13.908Z,34.63
2023-02-04T21:01:44.046Z,38.02
2023-02-04T21:04:32.016Z,45.88
2023-02-04T21:07:04.784Z,50.75
2023-02-04T21:09:34.048Z,46.88
2023-02-04T21:12:02.949Z,46.13
2023-02-04T21:14:31.172Z,40.52
2023-02-04T21:16:59.468Z,40.10
2023-02-04T21:19:30.471Z,35.90
2023-02-04T21:21:58.765Z,37.40
2023-02-04T21:24:27.451Z,35.55
2023-02-04T21:26:55.645Z,44.23
2023-02-04T21:29:23.937Z,41.70
2023-02-04T21:31:52.557Z,37.63
2023-02-04T21:34:20.752Z,39.63
2023-02-04T21:36:49.080Z,38.23
2023-02-04T21:39:17.290Z,38.90
2023-02-04T21:41:45.509Z,36.70
2023-02-04T21:44:13.714Z,35.58
2023-02-04T21:46:42.004Z,36.60
2023-02-04T21:49:10.321Z,38.30
2023-02-04T21:51:38.545Z,33.05
2023-02-04T21:54:06.798Z,37.93
2023-02-04T21:56:34.995Z,33.28
2023-02-04T21:59:04.517Z,28.15
2023-02-04T22:01:32.792Z,32.55
2023-02-04T22:04:01.047Z,21.95
2023-02-04T22:06:29.264Z,21.93
2023-02-04T22:08:57.559Z,27.20
2023-02-04T22:11:25.815Z,33.60
2023-02-04T22:13:54.032Z,33.92
2023-02-04T22:16:22.321Z,34.75
2023-02-04T22:18:50.522Z,35.08
2023-02-04T22:21:18.812Z,36.03
2023-02-04T22:23:47.061Z,31.23
2023-02-04T22:26:15.347Z,29.92
2023-02-04T22:28:43.564Z,31.00
2023-02-04T22:31:12.779Z,25.92
2023-02-04T22:33:41.109Z,30.70
2023-02-04T22:36:11.105Z,41.30
2023-02-04T22:38:39.319Z,51.95
2023-02-04T22:41:07.632Z,50.05
2023-02-04T22:43:35.937Z,46.00
2023-02-04T22:46:04.164Z,38.53
2023-02-04T22:48:32.371Z,37.45
2023-02-04T22:51:02.273Z,31.70
2023-02-04T22:53:31.050Z,31.48
2023-02-04T22:55:59.313Z,34.25
2023-02-04T22:58:27.686Z,35.80
2023-02-04T23:00:55.985Z,38.00
2023-02-04T23:03:24.231Z,40.23
2023-02-04T23:05:52.449Z,32.30
2023-02-04T23:08:20.930Z,37.38
2023-02-04T23:10:49.256Z,36.60
2023-02-04T23:13:17.689Z,38.28
2023-02-04T23:15:45.912Z,35.33
2023-02-04T23:18:14.118Z,32.50
2023-02-04T23:20:42.620Z,24.30
2023-02-04T23:23:12.939Z,32.60
2023-02-04T23:25:41.161Z,28.70
2023-02-04T23:28:09.609Z,26.50
2023-02-04T23:30:37.869Z,28.32
2023-02-04T23:33:06.106Z,33.23
2023-02-04T23:35:34.848Z,32.13
2023-02-04T23:38:04.914Z,37.50
2023-02-04T23:40:33.228Z,33.42
2023-02-04T23:43:01.457Z,29.00
2023-02-04T23:45:29.830Z,27.87
2023-02-04T23:47:58.077Z,29.15
2023-02-04T23:50:26.287Z,34.20
2023-02-04T23:52:54.512Z,28.73
2023-02-04T23:55:22.903Z,26.75
2023-02-04T23:57:51.727Z,35.88
